createdAt,value
2023-04-04T00:02:29.052Z,2.90
2023-04-04T00:05:30.959Z,3.37
2023-04-04T00:08:32.878Z,3.10
2023-04-04T00:11:34.878Z,2.70
2023-04-04T00:14:36.795Z,2.67
2023-04-04T00:17:38.816Z,2.90
2023-04-04T00:20:40.884Z,3.03
2023-04-04T00:23:42.964Z,2.93
2023-04-04T00:26:44.888Z,3.00
2023-04-04T00:29:47.359Z,3.07
2023-04-04T00:32:49.770Z,2.70
2023-04-04T00:35:52.017Z,3.27
2023-04-04T00:38:54.043Z,3.00
2023-04-04T00:41:56.863Z,2.77
2023-04-04T00:44:58.755Z,3.17
2023-04-04T00:48:02.621Z,2.73
2023-04-04T00:51:04.756Z,2.87
2023-04-04T00:54:06.809Z,2.70
2023-04-04T00:57:09.178Z,2.87
2023-04-04T01:00:12.673Z,3.07
2023-04-04T01:03:14.716Z,2.47
2023-04-04T01:06:17.498Z,2.93
2023-04-04T01:09:19.390Z,2.47
2023-04-04T01:12:21.385Z,2.60
2023-04-04T01:15:23.324Z,2.53
2023-04-04T01:18:26.934Z,2.30
2023-04-04T01:21:30.259Z,2.53
2023-04-04T01:24:34.259Z,2.23
2023-04-04T01:27:36.267Z,2.50
2023-04-04T01:30:40.535Z,2.53
2023-04-04T01:34:14.571Z,2.90
2023-04-04T01:37:35.096Z,2.87
2023-04-04T01:40:39.028Z,2.63
2023-04-04T01:43:46.084Z,2.47
2023-04-04T01:46:48.405Z,2.40
2023-04-04T01:49:51.799Z,2.43
2023-04-04T01:52:54.285Z,2.40
2023-04-04T01:55:56.885Z,2.90
2023-04-04T01:58:58.950Z,2.70
2023-04-04T02:02:01.497Z,2.40
2023-04-04T02:05:04.461Z,2.90
2023-04-04T02:08:07.130Z,2.53
2023-04-04T02:11:09.025Z,2.33
2023-04-04T02:14:10.940Z,2.53
2023-04-04T02:17:12.845Z,2.83
2023-04-04T02:20:15.640Z,2.90
2023-04-04T02:23:17.552Z,2.70
2023-04-04T02:26:19.550Z,3.07
2023-04-04T02:29:21.552Z,2.60
2023-04-04T02:32:24.087Z,3.03
2023-04-04T02:35:26.121Z,2.73
2023-04-04T02:38:29.141Z,3.07
2023-04-04T02:41:31.146Z,2.97
2023-04-04T02:44:36.254Z,2.60
2023-04-04T02:47:38.616Z,2.53
2023-04-04T02:50:41.396Z,2.50
2023-04-04T02:53:43.430Z,3.00
2023-04-04T02:56:45.282Z,2.53
2023-04-04T02:59:47.391Z,3.07
2023-04-04T03:02:56.535Z,3.10
2023-04-04T03:06:00.697Z,2.80
2023-04-04T03:09:05.042Z,3.07
2023-04-04T03:12:07.759Z,2.93
2023-04-04T03:15:10.151Z,2.70
2023-04-04T03:18:12.498Z,3.00
2023-04-04T03:21:14.326Z,3.27
2023-04-04T03:24:16.298Z,3.00
2023-04-04T03:27:18.235Z,2.97
2023-04-04T03:30:20.460Z,3.17
2023-04-04T03:33:23.013Z,2.77
2023-04-04T03:36:24.931Z,2.97
2023-04-04T03:39:30.577Z,2.60
2023-04-04T03:42:35.868Z,3.10
2023-04-04T03:45:37.859Z,2.77
2023-04-04T03:48:40.353Z,2.70
2023-04-04T03:51:42.990Z,2.40
2023-04-04T03:54:46.196Z,2.70
2023-04-04T03:57:48.131Z,2.60
2023-04-04T04:00:50.182Z,2.70
2023-04-04T04:03:52.179Z,2.40
2023-04-04T04:06:54.618Z,2.60
2023-04-04T04:09:56.627Z,3.20
2023-04-04T04:12:59.161Z,2.77
2023-04-04T04:16:01.340Z,4.27
2023-04-04T04:19:04.350Z,3.53
2023-04-04T04:22:06.480Z,3.20
2023-04-04T04:25:08.870Z,3.23
2023-04-04T04:28:11.053Z,3.13
2023-04-04T04:31:15.623Z,2.83
2023-04-04T04:34:20.579Z,2.67
2023-04-04T04:37:23.260Z,3.00
2023-04-04T04:40:25.201Z,2.87
2023-04-04T04:43:28.039Z,3.00
2023-04-04T04:46:30.005Z,2.53
2023-04-04T04:49:32.700Z,3.20
2023-04-04T04:52:37.314Z,3.03
2023-04-04T04:55:39.310Z,3.20
2023-04-04T04:58:41.288Z,3.00
2023-04-04T05:01:44.190Z,3.00
2023-04-04T05:04:46.731Z,2.67
2023-04-04T05:07:49.485Z,3.00
2023-04-04T05:10:53.012Z,2.73
2023-04-04T05:13:58.748Z,2.87
2023-04-04T05:20:38.564Z,3.10
2023-04-04T05:23:40.661Z,3.17
2023-04-04T05:26:47.294Z,2.87
2023-04-04T05:29:58.159Z,2.97
2023-04-04T05:33:00.222Z,2.87
2023-04-04T05:36:03.130Z,2.90
2023-04-04T05:39:05.271Z,2.90
2023-04-04T05:42:07.354Z,2.47
2023-04-04T05:45:10.432Z,2.80
2023-04-04T05:48:15.198Z,2.77
2023-04-04T05:51:17.877Z,2.50
2023-04-04T05:54:20.543Z,3.00
2023-04-04T05:57:36.410Z,3.03
2023-04-04T06:00:50.670Z,3.23
2023-04-04T06:03:53.754Z,3.03
2023-04-04T06:06:56.133Z,2.87
2023-04-04T06:09:58.061Z,3.50
2023-04-04T06:13:00.103Z,3.17
2023-04-04T06:16:06.062Z,2.97
2023-04-04T06:19:08.535Z,2.80
2023-04-04T06:22:10.374Z,2.93
2023-04-04T06:25:14.793Z,3.00
2023-04-04T06:28:18.196Z,2.87
2023-04-04T06:31:20.193Z,3.00
2023-04-04T06:34:22.905Z,3.40
2023-04-04T06:37:25.467Z,2.80
2023-04-04T06:40:27.814Z,2.87
2023-04-04T06:43:31.069Z,3.13
2023-04-04T06:46:33.552Z,2.77
2023-04-04T06:49:36.056Z,2.97
2023-04-04T06:52:39.664Z,3.27
2023-04-04T06:55:42.176Z,2.93
2023-04-04T06:58:44.171Z,3.40
2023-04-04T07:01:46.817Z,2.87
2023-04-04T07:04:48.694Z,2.77
2023-04-04T07:07:57.485Z,3.53
2023-04-04T07:11:00.500Z,3.10
2023-04-04T07:14:02.492Z,2.53
2023-04-04T07:17:13.732Z,2.87
2023-04-04T07:20:23.877Z,3.43
2023-04-04T07:23:36.387Z,3.03
2023-04-04T07:26:38.421Z,3.25
2023-04-04T07:29:40.309Z,3.00
2023-04-04T07:32:42.408Z,2.70
2023-04-04T07:35:44.324Z,3.10
2023-04-04T07:38:47.019Z,3.10
2023-04-04T07:41:49.978Z,3.20
2023-04-04T07:44:52.890Z,3.60
2023-04-04T07:47:55.032Z,3.03
2023-04-04T07:50:57.059Z,3.03
2023-04-04T07:53:58.961Z,3.20
2023-04-04T07:57:01.407Z,2.97
2023-04-04T08:00:05.578Z,3.53
2023-04-04T08:03:07.622Z,3.17
2023-04-04T08:06:09.972Z,3.00
2023-04-04T08:09:12.062Z,2.93
2023-04-04T08:12:14.175Z,2.93
2023-04-04T08:15:36.639Z,2.47
2023-04-04T08:18:43.898Z,3.10
2023-04-04T08:21:46.597Z,3.07
2023-04-04T08:25:11.340Z,2.60
2023-04-04T08:28:14.112Z,3.00
2023-04-04T08:31:17.152Z,3.00
2023-04-04T08:34:21.266Z,3.40
2023-04-04T08:37:23.254Z,3.23
2023-04-04T08:40:26.004Z,3.13
2023-04-04T08:43:28.259Z,2.60
2023-04-04T08:46:31.349Z,2.80
2023-04-04T08:49:38.290Z,3.00
2023-04-04T08:52:41.017Z,3.10
2023-04-04T08:55:43.520Z,2.83
2023-04-04T08:58:45.885Z,2.33
2023-04-04T09:01:48.445Z,3.03
2023-04-04T09:05:03.218Z,2.83
2023-04-04T09:08:08.314Z,2.87
2023-04-04T09:11:10.662Z,2.77
2023-04-04T09:14:12.942Z,2.53
2023-04-04T09:17:14.995Z,2.53
2023-04-04T09:20:39.684Z,3.30
2023-04-04T09:23:44.375Z,3.00
2023-04-04T09:26:53.996Z,2.33
2023-04-04T09:29:57.880Z,2.67
2023-04-04T09:33:05.250Z,2.43
2023-04-04T09:36:11.273Z,2.47
2023-04-04T09:39:16.773Z,3.20
2023-04-04T09:42:19.042Z,2.80
2023-04-04T09:45:31.642Z,2.83
2023-04-04T09:48:36.544Z,2.50
2023-04-04T09:51:39.042Z,2.87
2023-04-04T09:54:47.966Z,2.60
2023-04-04T09:57:50.486Z,2.50
2023-04-04T10:00:54.641Z,2.00
2023-04-04T10:03:58.415Z,2.40
2023-04-04T10:07:01.085Z,2.70
2023-04-04T10:10:06.078Z,2.33
2023-04-04T10:13:11.860Z,2.53
2023-04-04T10:16:14.423Z,2.60
2023-04-04T10:19:19.003Z,2.47
2023-04-04T10:22:21.316Z,2.87
2023-04-04T10:25:23.852Z,2.33
2023-04-04T10:28:27.335Z,2.43
2023-04-04T10:31:29.789Z,2.43
2023-04-04T10:34:39.526Z,2.70
2023-04-04T10:37:44.893Z,2.40
2023-04-04T10:40:48.557Z,2.30
2023-04-04T10:43:53.354Z,2.67
2023-04-04T10:46:56.244Z,2.17
2023-04-04T10:49:58.303Z,2.50
2023-04-04T10:53:02.511Z,2.53
2023-04-04T10:56:05.127Z,2.50
2023-04-04T10:59:13.562Z,2.53
2023-04-04T11:02:19.045Z,2.67
2023-04-04T11:05:24.019Z,2.80
2023-04-04T11:08:28.401Z,2.50
2023-04-04T11:11:31.206Z,2.87
2023-04-04T11:14:36.942Z,2.60
2023-04-04T11:17:57.705Z,2.50
2023-04-04T11:21:03.788Z,2.77
2023-04-04T11:24:05.891Z,2.60
2023-04-04T11:27:08.407Z,2.90
2023-04-04T11:30:17.933Z,2.30
2023-04-04T11:33:29.106Z,3.00
2023-04-04T11:36:37.398Z,2.67
2023-04-04T11:39:50.867Z,2.73
2023-04-04T11:42:53.546Z,2.53
2023-04-04T11:46:06.977Z,2.43
2023-04-04T11:49:10.681Z,2.20
2023-04-04T11:52:15.591Z,2.53
2023-04-04T11:55:19.941Z,2.63
2023-04-04T11:58:22.336Z,2.73
2023-04-04T12:01:24.351Z,2.63
2023-04-04T12:04:28.259Z,2.37
2023-04-04T12:07:30.869Z,2.83
2023-04-04T12:10:38.403Z,2.80
2023-04-04T12:13:46.705Z,2.73
2023-04-04T12:16:51.141Z,3.03
2023-04-04T12:19:53.328Z,2.90
2023-04-04T12:22:55.337Z,3.30
2023-04-04T12:25:57.637Z,3.03
2023-04-04T12:29:00.242Z,2.83
2023-04-04T12:32:03.246Z,2.50
2023-04-04T12:35:06.293Z,2.50
2023-04-04T12:38:11.200Z,2.70
2023-04-04T12:41:19.804Z,2.70
2023-04-04T12:44:33.146Z,2.93
2023-04-04T12:47:35.177Z,3.20
2023-04-04T12:50:50.323Z,2.63
2023-04-04T12:53:53.374Z,2.63
2023-04-04T12:56:59.814Z,2.87
2023-04-04T13:00:02.563Z,2.63
2023-04-04T13:03:04.636Z,2.87
2023-04-04T13:06:29.142Z,3.10
2023-04-04T13:09:31.330Z,2.87
2023-04-04T13:13:06.207Z,2.90
2023-04-04T13:16:10.018Z,3.10
2023-04-04T13:19:11.951Z,2.67
2023-04-04T13:22:15.078Z,2.87
2023-04-04T13:25:17.497Z,2.33
2023-04-04T13:28:19.515Z,2.83
2023-04-04T13:31:22.432Z,2.90
2023-04-04T13:34:25.029Z,2.50
2023-04-04T13:37:27.060Z,2.33
2023-04-04T13:40:30.101Z,2.87
2023-04-04T13:43:32.224Z,2.40
2023-04-04T13:46:34.624Z,3.10
2023-04-04T13:49:36.801Z,2.30
2023-04-04T13:52:39.180Z,2.40
2023-04-04T13:55:51.987Z,2.70
2023-04-04T13:59:04.294Z,2.70
2023-04-04T14:02:06.377Z,2.70
2023-04-04T14:05:08.792Z,2.50
2023-04-04T14:08:11.149Z,2.40
2023-04-04T14:11:15.548Z,2.60
2023-04-04T14:14:17.746Z,2.50
2023-04-04T14:17:19.745Z,2.40
2023-04-04T14:20:21.886Z,2.83
2023-04-04T14:23:24.350Z,2.50
2023-04-04T14:26:26.307Z,2.67
2023-04-04T14:29:28.493Z,2.37
2023-04-04T14:32:30.486Z,2.70
2023-04-04T14:35:32.516Z,2.47
2023-04-04T14:38:37.416Z,2.27
2023-04-04T14:41:39.409Z,2.30
2023-04-04T14:44:42.629Z,2.50
2023-04-04T14:47:44.796Z,2.40
2023-04-04T14:50:47.249Z,2.77
2023-04-04T14:53:52.788Z,1.97
2023-04-04T14:56:54.697Z,2.23
2023-04-04T14:59:56.627Z,2.30
2023-04-04T15:02:58.711Z,2.50
2023-04-04T15:06:02.283Z,2.40
2023-04-04T15:09:06.130Z,2.80
2023-04-04T15:12:08.616Z,2.23
2023-04-04T15:15:11.244Z,2.30
2023-04-04T15:18:13.312Z,2.43
2023-04-04T15:21:15.193Z,6.90
2023-04-04T15:24:18.428Z,3.00
2023-04-04T15:27:20.469Z,2.10
2023-04-04T15:30:24.293Z,2.10
2023-04-04T15:33:26.384Z,2.07
2023-04-04T15:36:29.332Z,1.93
2023-04-04T15:39:39.809Z,2.07
2023-04-04T15:42:48.311Z,2.40
2023-04-04T15:45:50.359Z,1.97
2023-04-04T15:48:52.530Z,2.03
2023-04-04T15:51:54.421Z,2.07
2023-04-04T15:54:56.865Z,2.03
2023-04-04T15:57:58.910Z,3.40
2023-04-04T16:01:01.397Z,2.60
2023-04-04T16:04:03.505Z,2.30
2023-04-04T16:07:05.731Z,2.30
2023-04-04T16:10:08.205Z,1.90
2023-04-04T16:13:11.488Z,2.00
2023-04-04T16:16:15.253Z,2.43
2023-04-04T16:19:19.574Z,2.40
2023-04-04T16:22:21.653Z,2.67
2023-04-04T16:25:23.748Z,2.43
2023-04-04T16:28:25.768Z,2.60
2023-04-04T16:31:27.903Z,2.20
2023-04-04T16:34:29.951Z,2.30
2023-04-04T16:37:32.282Z,2.73
2023-04-04T16:40:34.474Z,2.23
2023-04-04T16:43:36.635Z,2.50
2023-04-04T16:46:38.662Z,2.57
2023-04-04T16:49:41.464Z,2.43
2023-04-04T16:52:43.448Z,2.33
2023-04-04T16:55:45.856Z,2.43
2023-04-04T16:58:47.898Z,2.37
2023-04-04T17:01:50.047Z,2.30
2023-04-04T17:04:52.579Z,2.00
2023-04-04T17:07:54.861Z,2.30
2023-04-04T17:10:57.122Z,2.43
2023-04-04T17:13:59.615Z,2.23
2023-04-04T17:17:02.350Z,1.83
2023-04-04T17:20:06.102Z,1.80
2023-04-04T17:23:08.037Z,2.00
2023-04-04T17:26:10.063Z,1.90
2023-04-04T17:29:11.980Z,1.73
2023-04-04T17:32:15.156Z,2.10
2023-04-04T17:35:17.836Z,2.00
2023-04-04T17:38:21.293Z,1.70
2023-04-04T17:41:23.682Z,2.00
2023-04-04T17:44:26.515Z,2.00
2023-04-04T17:47:31.257Z,2.27
2023-04-04T17:50:33.346Z,2.10
2023-04-04T17:53:35.263Z,1.80
2023-04-04T17:56:38.810Z,1.80
2023-04-04T17:59:41.552Z,2.53
2023-04-04T18:02:44.203Z,2.10
2023-04-04T18:05:46.440Z,1.87
2023-04-04T18:08:51.787Z,1.80
2023-04-04T18:11:54.367Z,1.80
2023-04-04T18:14:58.218Z,1.60
2023-04-04T18:18:00.236Z,1.77
2023-04-04T18:21:02.222Z,2.17
2023-04-04T18:24:07.539Z,2.20
2023-04-04T18:27:10.787Z,1.80
2023-04-04T18:30:12.924Z,2.10
2023-04-04T18:33:15.006Z,1.80
2023-04-04T18:36:17.099Z,1.83
2023-04-04T18:39:19.157Z,1.80
2023-04-04T18:42:22.206Z,1.83
2023-04-04T18:45:33.719Z,1.57
2023-04-04T18:48:42.341Z,1.80
2023-04-04T18:51:47.630Z,1.70
2023-04-04T18:54:50.338Z,1.90
2023-04-04T18:57:52.405Z,1.80
2023-04-04T19:00:56.044Z,2.10
2023-04-04T19:03:58.370Z,1.97
2023-04-04T19:07:03.573Z,2.13
2023-04-04T19:10:07.472Z,2.10
2023-04-04T19:13:10.021Z,1.83
2023-04-04T19:16:12.333Z,2.10
2023-04-04T19:19:14.287Z,1.80
2023-04-04T19:22:16.887Z,1.90
2023-04-04T19:25:20.450Z,1.60
2023-04-04T19:28:22.592Z,1.97
2023-04-04T19:31:30.254Z,2.20
2023-04-04T19:34:33.026Z,2.27
2023-04-04T19:37:36.040Z,1.93
2023-04-04T19:40:48.670Z,1.90
2023-04-04T19:43:51.093Z,1.93
2023-04-04T19:46:54.455Z,2.07
2023-04-04T19:49:57.777Z,1.77
2023-04-04T19:53:00.182Z,1.93
2023-04-04T19:56:08.797Z,2.13
2023-04-04T19:59:45.874Z,1.60
2023-04-04T20:02:52.922Z,1.77
2023-04-04T20:05:58.651Z,2.50
2023-04-04T20:09:02.738Z,2.10
2023-04-04T20:12:07.172Z,2.43
2023-04-04T20:15:14.578Z,2.03
2023-04-04T20:18:24.366Z,1.83
2023-04-04T20:21:28.644Z,2.07
2023-04-04T20:24:31.026Z,2.20
2023-04-04T20:27:34.359Z,2.07
2023-04-04T20:30:37.050Z,1.93
2023-04-04T20:33:40.667Z,2.40
2023-04-04T20:36:43.278Z,2.03
2023-04-04T20:39:48.038Z,2.50
2023-04-04T20:42:50.042Z,2.10
2023-04-04T20:45:51.958Z,2.00
2023-04-04T20:48:56.990Z,2.30
2023-04-04T20:51:58.920Z,2.53
2023-04-04T20:55:03.440Z,1.90
2023-04-04T20:58:24.470Z,2.10
2023-04-04T21:01:27.314Z,1.87
2023-04-04T21:04:29.334Z,1.73
2023-04-04T21:07:43.869Z,2.10
2023-04-04T21:10:50.661Z,2.10
2023-04-04T21:13:53.256Z,2.10
2023-04-04T21:30:20.680Z,2.27
2023-04-04T21:34:17.430Z,1.97
2023-04-04T21:37:22.168Z,1.87
2023-04-04T21:40:45.091Z,2.00
2023-04-04T21:43:49.594Z,2.10
2023-04-04T21:46:52.276Z,2.20
2023-04-04T21:49:55.188Z,2.43
2023-04-04T21:53:28.320Z,1.97
2023-04-04T21:56:34.448Z,2.07
2023-04-04T21:59:39.912Z,2.00
2023-04-04T22:03:03.587Z,2.30
2023-04-04T22:06:08.838Z,2.00
2023-04-04T22:09:11.047Z,2.00
2023-04-04T22:12:16.389Z,2.43
2023-04-04T22:15:18.486Z,2.20
2023-04-04T22:18:30.662Z,2.10
2023-04-04T22:21:37.343Z,1.70
2023-04-04T22:24:41.295Z,2.30
2023-04-04T22:27:43.282Z,1.73
2023-04-04T22:30:45.259Z,1.77
2023-04-04T22:33:48.073Z,1.83
2023-04-04T22:36:49.958Z,1.80
2023-04-04T22:39:52.709Z,1.80
2023-04-04T22:42:55.025Z,2.20
2023-04-04T22:45:57.799Z,2.20
2023-04-04T22:49:06.682Z,2.17
2023-04-04T22:52:11.663Z,2.10
2023-04-04T22:55:16.772Z,2.10
2023-04-04T22:58:20.561Z,1.77
2023-04-04T23:01:22.658Z,2.30
2023-04-04T23:04:45.829Z,2.00
2023-04-04T23:07:58.173Z,1.93
2023-04-04T23:14:31.340Z,1.67
2023-04-04T23:17:59.139Z,2.07
2023-04-04T23:39:35.164Z,2.57
2023-04-04T23:43:07.751Z,1.80
2023-04-04T23:47:29.239Z,1.80
2023-04-04T23:55:18.164Z,1.90
2023-04-04T23:58:39.037Z,2.07
